Home > Products > Valid Products > TAF

000
FTUS42 KTAE 310524
TAFDHN
TAF
KDHN 310524Z 3106/0106 26005KT P6SM SCT060
     FM310800 24004KT 4SM BR BKN025
     FM311000 23003KT 2SM BR OVC008
     FM311500 26010KT P6SM BKN040 PROB30 3118/3122 VRB15G25KT 3SM
      TSRA BKN025CB
     FM010000 23006KT P6SM BKN100=



000
FTUS42 KTAE 310524
TAFDHN
TAF
KDHN 310524Z 3106/0106 26005KT P6SM SCT060
     FM310800 24004KT 4SM BR BKN025
     FM311000 23003KT 2SM BR OVC008
     FM311500 26010KT P6SM BKN040 PROB30 3118/3122 VRB15G25KT 3SM
      TSRA BKN025CB
     FM010000 23006KT P6SM BKN100=



000
FTUS42 KTAE 310524
TAFTLH
TAF
KTLH 310524Z 3106/0106 25003KT 4SM BR SCT025
     FM310900 00000KT 2SM BR OVC025
     FM311500 25008G16KT P6SM BKN035 PROB30 3120/3124 VRB15G25KT 3SM
      TSRA BKN025CB
     FM010000 22006KT P6SM BKN250=



000
FTUS42 KTAE 310524
TAFVLD
TAF
KVLD 310524Z 3106/0106 20003KT P6SM SCT050
     FM310800 00000KT 4SM BR BKN025
     FM311000 00000KT 2SM BR OVC008
     FM311500 26005KT P6SM BKN040 PROB30 3119/3123 VRB15G25KT 3SM
      TSRA BKN025CB
     FM010000 26005KT P6SM BKN250=



000
FTUS42 KTAE 310524
TAFABY
TAF
KABY 310524Z 3106/0106 26003KT P6SM FEW050
     FM310800 00000KT 4SM BR BKN025
     FM311000 00000KT 2SM BR OVC008
     FM311500 25009KT P6SM BKN040 PROB30 3118/3122 VRB15G25KT 3SM
      TSRA BKN025CB
     FM010000 24007KT P6SM BKN100=



000
FTUS42 KTAE 310524
TAFTLH
TAF
KTLH 310524Z 3106/0106 25003KT 4SM BR SCT025
     FM310900 00000KT 2SM BR OVC025
     FM311500 25008G16KT P6SM BKN035 PROB30 3120/3124 VRB15G25KT 3SM
      TSRA BKN025CB
     FM010000 22006KT P6SM BKN250=



000
FTUS42 KTAE 310524
TAFVLD
TAF
KVLD 310524Z 3106/0106 20003KT P6SM SCT050
     FM310800 00000KT 4SM BR BKN025
     FM311000 00000KT 2SM BR OVC008
     FM311500 26005KT P6SM BKN040 PROB30 3119/3123 VRB15G25KT 3SM
      TSRA BKN025CB
     FM010000 26005KT P6SM BKN250=



000
FTUS42 KTAE 310524
TAFABY
TAF
KABY 310524Z 3106/0106 26003KT P6SM FEW050
     FM310800 00000KT 4SM BR BKN025
     FM311000 00000KT 2SM BR OVC008
     FM311500 25009KT P6SM BKN040 PROB30 3118/3122 VRB15G25KT 3SM
      TSRA BKN025CB
     FM010000 24007KT P6SM BKN100=



000
FTUS42 KTAE 302326
TAFTLH
TAF
KTLH 302326Z 3100/3124 VRB04KT P6SM SCT040 SCT100 BKN250
     FM310200 22005KT P6SM BKN050
     FM310600 25003KT 3SM BR SCT025
     FM310900 00000KT 2SM BR OVC025
     FM311500 25008G16KT P6SM BKN035 PROB30 3120/3124 VRB15G25KT 3SM
      TSRA BKN025CB=



000
FTUS42 KTAE 302326
TAFDHN
TAF
KDHN 302326Z 3100/3124 26005KT P6SM SCT060
     FM310800 24004KT 4SM BR BKN025
     FM311000 23003KT 2SM BR OVC008
     FM311500 26010KT P6SM BKN040 PROB30 3118/3122 VRB15G25KT 3SM
      TSRA BKN025CB=



000
FTUS42 KTAE 302326
TAFABY
TAF
KABY 302326Z 3100/3124 26003KT P6SM FEW050
     FM310800 00000KT 4SM BR BKN025
     FM311000 00000KT 2SM BR OVC008
     FM311500 25009KT P6SM BKN040 PROB30 3118/3122 VRB15G25KT 3SM
      TSRA BKN025CB=



000
FTUS42 KTAE 302326
TAFVLD
TAF
KVLD 302326Z 3100/3124 20003KT P6SM SCT050
     FM310800 00000KT 4SM BR BKN025
     FM311000 00000KT 2SM BR OVC008
     FM311500 26005KT P6SM BKN040 PROB30 3119/3123 VRB15G25KT 3SM
      TSRA BKN025CB=



000
FTUS42 KTAE 301737
TAFTLH
TAF
KTLH 301737Z 3018/3118 27010G18KT P6SM SCT050 BKN100
      TEMPO 3020/3023 VRB15G25KT 3SM TSRA BKN050CB
     FM310200 22005KT P6SM BKN050
     FM310600 25003KT 3SM BR SCT025
     FM310900 00000KT 2SM BR OVC025
     FM311500 27005KT P6SM BKN050=



000
FTUS42 KTAE 301737
TAFDHN
TAF
KDHN 301737Z 3018/3118 26010G18KT P6SM BKN070
      TEMPO 3018/3022 VRB15G25KT 3SM TSRA BKN050CB
     FM310000 29004KT P6SM SCT250
     FM310600 28004KT 4SM BR OVC050
     FM310900 00000KT 2SM BR OVC015
     FM311500 27008KT P6SM SCT050 BKN100=



000
FTUS42 KTAE 301737
TAFVLD
TAF
KVLD 301737Z 3018/3118 26007G18KT P6SM SCT050 BKN080
      TEMPO 3018/3022 VRB15G25KT 3SM TSRA BKN050CB
     FM310600 00000KT 4SM BR OVC050
     FM310900 00000KT 1SM BR OVC025
     FM311500 22005KT P6SM BKN050=



000
FTUS42 KTAE 301737
TAFVLD
TAF
KVLD 301737Z 3018/3118 26007G18KT P6SM SCT050 BKN080
      TEMPO 3018/3022 VRB15G25KT 3SM TSRA BKN050CB
     FM310600 00000KT 4SM BR OVC050
     FM310900 00000KT 1SM BR OVC025
     FM311500 22005KT P6SM BKN050=



000
FTUS42 KTAE 301737
TAFABY
TAF
KABY 301737Z 3018/3118 27010G20KT P6SM SCT040 BKN100
      TEMPO 3018/3022 VRB15G25KT 3SM TSRA BKN025CB
     FM310000 27003KT P6SM SCT250
     FM310600 00000KT 4SM BR SCT025
     FM311500 22006KT P6SM OVC050=



000
FTUS42 KTAE 301737
TAFTLH
TAF
KTLH 301737Z 3018/3118 27010G18KT P6SM SCT050 BKN100
      TEMPO 3020/3023 VRB15G25KT 3SM TSRA BKN050CB
     FM310200 22005KT P6SM BKN050
     FM310600 25003KT 3SM BR SCT025
     FM310900 00000KT 2SM BR OVC025
     FM311500 27005KT P6SM BKN050=



000
FTUS42 KTAE 301737
TAFABY
TAF
KABY 301737Z 3018/3118 27010G20KT P6SM SCT040 BKN100
      TEMPO 3018/3022 VRB15G25KT 3SM TSRA BKN025CB
     FM310000 27003KT P6SM SCT250
     FM310600 00000KT 4SM BR SCT025
     FM311500 22006KT P6SM OVC050=



000
FTUS42 KTAE 301737
TAFDHN
TAF
KDHN 301737Z 3018/3118 26010G18KT P6SM BKN070
      TEMPO 3018/3022 VRB15G25KT 3SM TSRA BKN050CB
     FM310000 29004KT P6SM SCT250
     FM310600 28004KT 4SM BR OVC050
     FM310900 00000KT 2SM BR OVC015
     FM311500 27008KT P6SM SCT050 BKN100=



000
FTUS42 KTAE 301124
TAFDHN
TAF
KDHN 301124Z 3012/3112 21010KT P6SM BKN025
     FM301500 28013G23KT P6SM SCT025 BKN040
      TEMPO 3018/3022 VRB15G25KT 3SM TSRA BKN025CB
     FM310000 29004KT P6SM SCT250
     FM310600 28004KT 4SM BR OVC050=



000
FTUS42 KTAE 301124
TAFVLD
TAF
KVLD 301124Z 3012/3112 19004KT P6SM SKC
     FM301500 26007G15KT P6SM SCT050
      TEMPO 3018/3022 VRB15G25KT 3SM TSRA BKN050CB
     FM310600 00000KT 4SM BR OVC050=



000
FTUS42 KTAE 301124
TAFABY
TAF
KABY 301124Z 3012/3112 22008KT P6SM BKN050
     FM301600 27011G20KT P6SM BKN040
      TEMPO 3018/3022 VRB15G25KT 3SM TSRA BKN025CB
     FM310000 27003KT P6SM SCT250
     FM310600 00000KT 4SM BR SCT025=



000
FTUS42 KTAE 301124
TAFTLH
TAF
KTLH 301124Z 3012/3112 00000KT P6SM SCT250
     FM301800 24010G18KT P6SM SCT050
      TEMPO 3020/3023 VRB15G25KT 3SM TSRA BKN050CB
     FM310200 22005KT P6SM BKN050
     FM310600 25003KT 3SM BR SCT025=



000
FTUS42 KTAE 301124
TAFTLH
TAF
KTLH 301124Z 3012/3112 00000KT P6SM SCT250
     FM301800 24010G18KT P6SM SCT050
      TEMPO 3020/3023 VRB15G25KT 3SM TSRA BKN050CB
     FM310200 22005KT P6SM BKN050
     FM310600 25003KT 3SM BR SCT025=



000
FTUS42 KTAE 301124
TAFABY
TAF
KABY 301124Z 3012/3112 22008KT P6SM BKN050
     FM301600 27011G20KT P6SM BKN040
      TEMPO 3018/3022 VRB15G25KT 3SM TSRA BKN025CB
     FM310000 27003KT P6SM SCT250
     FM310600 00000KT 4SM BR SCT025=



000
FTUS42 KTAE 301124
TAFVLD
TAF
KVLD 301124Z 3012/3112 19004KT P6SM SKC
     FM301500 26007G15KT P6SM SCT050
      TEMPO 3018/3022 VRB15G25KT 3SM TSRA BKN050CB
     FM310600 00000KT 4SM BR OVC050=



000
FTUS42 KTAE 301124
TAFDHN
TAF
KDHN 301124Z 3012/3112 21010KT P6SM BKN025
     FM301500 28013G23KT P6SM SCT025 BKN040
      TEMPO 3018/3022 VRB15G25KT 3SM TSRA BKN025CB
     FM310000 29004KT P6SM SCT250
     FM310600 28004KT 4SM BR OVC050=



000
FTUS42 KTAE 300520
TAFVLD
TAF
KVLD 300520Z 3006/3106 17004KT P6SM SKC
     FM301500 26007G15KT P6SM SCT050 PROB30 3020/3024 VRB15G25KT 3SM
      TSRA BKN035CB
     FM310300 21002KT P6SM SCT250=



000
FTUS42 KTAE 300520
TAFABY
TAF
KABY 300520Z 3006/3106 18003KT P6SM SKC
     FM301300 24010KT P6SM BKN035
     FM301600 27011G20KT P6SM BKN040
      TEMPO 3018/3022 VRB15G25KT 3SM TSRA BKN025CB
     FM310000 27003KT P6SM SCT250=



000
FTUS42 KTAE 300520
TAFDHN
TAF
KDHN 300520Z 3006/3106 19004KT P6SM SKC
     FM301100 21010KT P6SM BKN025
     FM301500 28013G23KT P6SM SCT025 BKN040
      TEMPO 3018/3022 VRB15G25KT 3SM TSRA BKN025CB
     FM310000 29004KT P6SM SCT250=



000
FTUS42 KTAE 300520
TAFTLH
TAF
KTLH 300520Z 3006/3106 00000KT P6SM SCT250
     FM301800 24010G18KT P6SM SCT050 PROB30 3020/3024 VRB15G25KT 3SM
      TSRA BKN035CB
     FM310200 22005KT P6SM BKN050=



000
FTUS42 KTAE 300520
TAFABY
TAF
KABY 300520Z 3006/3106 18003KT P6SM SKC
     FM301300 24010KT P6SM BKN035
     FM301600 27011G20KT P6SM BKN040
      TEMPO 3018/3022 VRB15G25KT 3SM TSRA BKN025CB
     FM310000 27003KT P6SM SCT250=



000
FTUS42 KTAE 300520
TAFVLD
TAF
KVLD 300520Z 3006/3106 17004KT P6SM SKC
     FM301500 26007G15KT P6SM SCT050 PROB30 3020/3024 VRB15G25KT 3SM
      TSRA BKN035CB
     FM310300 21002KT P6SM SCT250=



000
FTUS42 KTAE 300520
TAFDHN
TAF
KDHN 300520Z 3006/3106 19004KT P6SM SKC
     FM301100 21010KT P6SM BKN025
     FM301500 28013G23KT P6SM SCT025 BKN040
      TEMPO 3018/3022 VRB15G25KT 3SM TSRA BKN025CB
     FM310000 29004KT P6SM SCT250=



000
FTUS42 KTAE 300520
TAFTLH
TAF
KTLH 300520Z 3006/3106 00000KT P6SM SCT250
     FM301800 24010G18KT P6SM SCT050 PROB30 3020/3024 VRB15G25KT 3SM
      TSRA BKN035CB
     FM310200 22005KT P6SM BKN050=



000
FTUS42 KTAE 292322
TAFVLD
TAF
KVLD 292322Z 3000/3024 00000KT P6SM SKC
     FM301500 26007G15KT P6SM SCT050 PROB30 3020/3024 VRB15G25KT 3SM
      TSRA BKN035CB=



000
FTUS42 KTAE 292322
TAFTLH
TAF
KTLH 292322Z 3000/3024 19005KT P6SM SCT060
     FM300200 00000KT P6SM SKC
     FM301500 24010G18KT P6SM SCT050 PROB30 3020/3024 VRB15G25KT 3SM
      TSRA BKN035CB=



000
FTUS42 KTAE 292322
TAFDHN
TAF
KDHN 292322Z 3000/3024 19004KT P6SM SKC
     FM301100 21010KT P6SM BKN025
     FM301500 28013G23KT P6SM SCT025 BKN040
      TEMPO 3018/3022 VRB15G25KT 3SM TSRA BKN025CB=



000
FTUS42 KTAE 292322
TAFABY
TAF
KABY 292322Z 3000/3024 VRB04KT P6SM SCT060
     FM300200 00000KT P6SM SKC
     FM301300 24010KT P6SM BKN035
     FM301600 27011G20KT P6SM BKN040
      TEMPO 3018/3022 VRB15G25KT 3SM TSRA BKN025CB=



000
FTUS42 KTAE 292322
TAFTLH
TAF
KTLH 292322Z 3000/3024 19005KT P6SM SCT060
     FM300200 00000KT P6SM SKC
     FM301500 24010G18KT P6SM SCT050 PROB30 3020/3024 VRB15G25KT 3SM
      TSRA BKN035CB=



000
FTUS42 KTAE 292322
TAFVLD
TAF
KVLD 292322Z 3000/3024 00000KT P6SM SKC
     FM301500 26007G15KT P6SM SCT050 PROB30 3020/3024 VRB15G25KT 3SM
      TSRA BKN035CB=



000
FTUS42 KTAE 292322
TAFDHN
TAF
KDHN 292322Z 3000/3024 19004KT P6SM SKC
     FM301100 21010KT P6SM BKN025
     FM301500 28013G23KT P6SM SCT025 BKN040
      TEMPO 3018/3022 VRB15G25KT 3SM TSRA BKN025CB=



000
FTUS42 KTAE 292322
TAFABY
TAF
KABY 292322Z 3000/3024 VRB04KT P6SM SCT060
     FM300200 00000KT P6SM SKC
     FM301300 24010KT P6SM BKN035
     FM301600 27011G20KT P6SM BKN040
      TEMPO 3018/3022 VRB15G25KT 3SM TSRA BKN025CB=



000
FTUS42 KTAE 291728
TAFABY
TAF
KABY 291728Z 2918/3018 12005KT P6SM SCT050
     FM300200 18003KT P6SM SKC
     FM301300 24010KT P6SM BKN035=



000
FTUS42 KTAE 291728
TAFTLH
TAF
KTLH 291728Z 2918/3018 09006KT P6SM FEW050
     FM300200 00000KT P6SM SKC
     FM301400 22006KT P6SM FEW050=



000
FTUS42 KTAE 291728
TAFVLD
TAF
KVLD 291728Z 2918/3018 06006KT P6SM SKC
     FM301500 23008KT P6SM FEW040=



000
FTUS42 KTAE 291728
TAFDHN
TAF
KDHN 291728Z 2918/3018 VRB05KT P6SM SCT050
     FM300000 18003KT P6SM SKC
     FM301000 23008KT P6SM BKN025=



000
FTUS42 KTAE 291728
TAFABY
TAF
KABY 291728Z 2918/3018 12005KT P6SM SCT050
     FM300200 18003KT P6SM SKC
     FM301300 24010KT P6SM BKN035=



000
FTUS42 KTAE 291728
TAFDHN
TAF
KDHN 291728Z 2918/3018 VRB05KT P6SM SCT050
     FM300000 18003KT P6SM SKC
     FM301000 23008KT P6SM BKN025=



000
FTUS42 KTAE 291728
TAFVLD
TAF
KVLD 291728Z 2918/3018 06006KT P6SM SKC
     FM301500 23008KT P6SM FEW040=



000
FTUS42 KTAE 291728
TAFTLH
TAF
KTLH 291728Z 2918/3018 09006KT P6SM FEW050
     FM300200 00000KT P6SM SKC
     FM301400 22006KT P6SM FEW050=



000
FTUS42 KTAE 291458 AAA
TAFDHN
TAF AMD
KDHN 291458Z 2915/3012 09010KT P6SM BKN070
     FM300200 17004KT P6SM SKC=



000
FTUS42 KTAE 291458 AAA
TAFDHN
TAF AMD
KDHN 291458Z 2915/3012 09010KT P6SM BKN070
     FM300200 17004KT P6SM SKC=



000
FTUS42 KTAE 291130
TAFVLD
TAF
KVLD 291130Z 2912/3012 01007KT P6SM BKN080
     FM291400 03005KT P6SM FEW100=



000
FTUS42 KTAE 291130
TAFTLH
TAF
KTLH 291130Z 2912/3012 07006KT P6SM FEW080
     FM300200 00000KT P6SM SKC=



000
FTUS42 KTAE 291130
TAFDHN
TAF
KDHN 291130Z 2912/3012 36004KT P6SM OVC060
     FM291400 30006KT P6SM SCT070
     FM300200 17004KT P6SM SKC=



000
FTUS42 KTAE 291130
TAFABY
TAF
KABY 291130Z 2912/3012 02005KT P6SM OVC080
     FM291400 08006KT P6SM SCT070
     FM291800 12005KT P6SM SKC=



000
FTUS42 KTAE 291130
TAFDHN
TAF
KDHN 291130Z 2912/3012 36004KT P6SM OVC060
     FM291400 30006KT P6SM SCT070
     FM300200 17004KT P6SM SKC=



000
FTUS42 KTAE 291130
TAFVLD
TAF
KVLD 291130Z 2912/3012 01007KT P6SM BKN080
     FM291400 03005KT P6SM FEW100=



000
FTUS42 KTAE 291130
TAFABY
TAF
KABY 291130Z 2912/3012 02005KT P6SM OVC080
     FM291400 08006KT P6SM SCT070
     FM291800 12005KT P6SM SKC=



000
FTUS42 KTAE 291130
TAFTLH
TAF
KTLH 291130Z 2912/3012 07006KT P6SM FEW080
     FM300200 00000KT P6SM SKC=



000
FTUS42 KTAE 290945 CCA
TAFDHN
TAF COR
KDHN 290945Z 2906/3006 35006KT P6SM SCT080
      TEMPO 2906/2910 BKN070
     FM291400 30006KT P6SM SCT070
     FM300200 17004KT P6SM SKC=



000
FTUS42 KTAE 290520
TAFTLH
TAF
KTLH 290520Z 2906/3006 28003KT P6SM SCT090
     FM291400 07006KT P6SM FEW100
     FM300200 00000KT P6SM SKC=



000
FTUS42 KTAE 290520
TAFDHN
TAF
KDHN 290520Z 2906/3006 35006KT P6SM SCT080
      TEMPO 2906/2910 BKN070
     FM291400 30006KT P6SM SCT070=



000
FTUS42 KTAE 290520
TAFDHN
TAF

FM300200
 17004KT P6SM SKC=



000
FTUS42 KTAE 290520
TAFVLD
TAF
KVLD 290520Z 2906/3006 00000KT P6SM SCT090
      TEMPO 2907/2911 BKN070
     FM291400 05006KT P6SM SCT070
     FM300100 00000KT P6SM SKC=



000
FTUS42 KTAE 290520
TAFDHN
TAF
KDHN 290520Z 2906/3006 35006KT P6SM SCT080
      TEMPO 2906/2910 BKN070
     FM291400 30006KT P6SM SCT070=



000
FTUS42 KTAE 290520
TAFDHN
TAF

FM300200
 17004KT P6SM SKC=



000
FTUS42 KTAE 290520
TAFABY
TAF
KABY 290520Z 2906/3006 32006KT P6SM OVC080
     FM291400 08006KT P6SM SCT070
     FM291800 12005KT P6SM SCT250
     FM300200 00000KT P6SM SKC=



000
FTUS42 KTAE 290520
TAFABY
TAF
KABY 290520Z 2906/3006 32006KT P6SM OVC080
     FM291400 08006KT P6SM SCT070
     FM291800 12005KT P6SM SCT250
     FM300200 00000KT P6SM SKC=



000
FTUS42 KTAE 290520
TAFVLD
TAF
KVLD 290520Z 2906/3006 00000KT P6SM SCT090
      TEMPO 2907/2911 BKN070
     FM291400 05006KT P6SM SCT070
     FM300100 00000KT P6SM SKC=



000
FTUS42 KTAE 290520
TAFTLH
TAF
KTLH 290520Z 2906/3006 28003KT P6SM SCT090
     FM291400 07006KT P6SM FEW100
     FM300200 00000KT P6SM SKC=



000
FTUS42 KTAE 282320
TAFVLD
TAF
KVLD 282320Z 2900/2924 00000KT P6SM FEW250
     FM290500 00000KT P6SM SCT100 SCT250
     FM291400 05006KT P6SM SCT070=



000
FTUS42 KTAE 282320
TAFABY
TAF
KABY 282320Z 2900/2924 30006KT P6SM SCT070 BKN100
     FM290300 VRB03KT P6SM BKN070
     FM291400 08006KT P6SM BKN070
     FM291800 14006KT P6SM SCT070=



000
FTUS42 KTAE 282320
TAFDHN
TAF
KDHN 282320Z 2900/2924 33012KT P6SM SCT070 BKN100
     FM290300 VRB05KT P6SM BKN070
     FM291400 10006KT P6SM BKN070
     FM291800 16006KT P6SM SCT070=



000
FTUS42 KTAE 282320
TAFTLH
TAF
KTLH 282320Z 2900/2924 32007KT P6SM FEW250
     FM290300 VRB02KT P6SM SCT100 SCT250
     FM291400 07006KT P6SM SCT070=



000
FTUS42 KTAE 281739
TAFVLD
TAF
KVLD 281739Z 2818/2918 33006KT P6SM SKC
     FM290400 36003KT P6SM SCT100 SCT250=



000
FTUS42 KTAE 281739
TAFTLH
TAF
KTLH 281739Z 2818/2918 32011KT P6SM SCT250
     FM290300 33003KT P6SM SCT100 SCT250
     FM291400 07005KT P6SM SCT080 SCT100=



000
FTUS42 KTAE 281739
TAFABY
TAF
KABY 281739Z 2818/2918 30008G13KT P6SM SCT250
     FM290400 32004KT P6SM BKN100 BKN250
     FM290700 07005KT P6SM SCT100=



000
FTUS42 KTAE 281739
TAFDHN
TAF
KDHN 281739Z 2818/2918 30008KT P6SM SCT250
     FM282000 31010G15KT P6SM SCT100 BKN250
     FM290300 32005KT P6SM BKN100 BKN250
     FM291400 10006KT P6SM BKN080 BKN100=



000
FTUS42 KTAE 281739
TAFVLD
TAF
KVLD 281739Z 2818/2918 33006KT P6SM SKC
     FM290400 36003KT P6SM SCT100 SCT250=



000
FTUS42 KTAE 281739
TAFTLH
TAF
KTLH 281739Z 2818/2918 32011KT P6SM SCT250
     FM290300 33003KT P6SM SCT100 SCT250
     FM291400 07005KT P6SM SCT080 SCT100=



000
FTUS42 KTAE 281739
TAFDHN
TAF
KDHN 281739Z 2818/2918 30008KT P6SM SCT250
     FM282000 31010G15KT P6SM SCT100 BKN250
     FM290300 32005KT P6SM BKN100 BKN250
     FM291400 10006KT P6SM BKN080 BKN100=



000
FTUS42 KTAE 281739
TAFABY
TAF
KABY 281739Z 2818/2918 30008G13KT P6SM SCT250
     FM290400 32004KT P6SM BKN100 BKN250
     FM290700 07005KT P6SM SCT100=



000
FTUS42 KTAE 281120
TAFDHN
TAF
KDHN 281120Z 2812/2912 33008KT P6SM SCT250
     FM282000 31010G15KT P6SM SCT100 BKN250
     FM290300 32005KT P6SM BKN100 BKN250
     FM290900 03003KT P6SM SCT250=



000
FTUS42 KTAE 281120
TAFTLH
TAF
KTLH 281120Z 2812/2912 29005KT P6SM SKC
     FM281800 32008G13KT P6SM SCT250
     FM290300 33003KT P6SM SCT100 SCT250=



000
FTUS42 KTAE 281120
TAFVLD
TAF
KVLD 281120Z 2812/2912 00000KT P6SM SKC
     FM281500 33006KT P6SM SKC
     FM290400 36003KT P6SM SCT100 SCT250=



000
FTUS42 KTAE 281120
TAFTLH
TAF
KTLH 281120Z 2812/2912 29005KT P6SM SKC
     FM281800 32008G13KT P6SM SCT250
     FM290300 33003KT P6SM SCT100 SCT250=



000
FTUS42 KTAE 281120
TAFDHN
TAF
KDHN 281120Z 2812/2912 33008KT P6SM SCT250
     FM282000 31010G15KT P6SM SCT100 BKN250
     FM290300 32005KT P6SM BKN100 BKN250
     FM290900 03003KT P6SM SCT250=



000
FTUS42 KTAE 281120
TAFVLD
TAF
KVLD 281120Z 2812/2912 00000KT P6SM SKC
     FM281500 33006KT P6SM SKC
     FM290400 36003KT P6SM SCT100 SCT250=



000
FTUS42 KTAE 281120
TAFABY
TAF
KABY 281120Z 2812/2912 30005KT P6SM SKC
     FM281500 31008G13KT P6SM SCT250
     FM290400 32004KT P6SM BKN100 BKN250
     FM290700 35002KT P6SM SKC=



000
FTUS42 KTAE 281120
TAFABY
TAF
KABY 281120Z 2812/2912 30005KT P6SM SKC
     FM281500 31008G13KT P6SM SCT250
     FM290400 32004KT P6SM BKN100 BKN250
     FM290700 35002KT P6SM SKC=



    US Dept of Commerce
    National Oceanic and Atmospheric Administration
    National Weather Service
    1325 East West Highway
    Silver Spring, MD 20910
    Page Author: NWS Internet Services Team
Disclaimer
Information Quality
Credits
Glossary
Privacy Policy
Freedom of Information Act (FOIA)
About Us
Career Opportunities